Portada
METAR-TAF:

METAR-TAF

Aeroports :

Mount Isa, Austràlia

latitud: 20-40S, longitud: 139-28E, altitud: 342 m

Observació

L'informe es va fer fa 26 minuts, a les 11:00 UTC
Vent 5 kt del Sud
Temperatura 21°C
Humitat 21%
Pressió 1016 hPa
Visibilitat 10 km o més

METAR: YBMA 251100Z AUTO 19005KT 9999 // NCD 21/M02 Q1016

Hora: 21:26 (11:26 UTC)

Pronòstic

L'informe es va fer fa 7 hores i 38 minuts, a les 03:48 UTC
Pronòstic vàlid del 25 a les 06 UTC al 25 a les 18 UTC
Vent 8 kt del Sud-Est
Visibilitat 10 km o més
sense núvols per sota de 1500 mi sense presència de cumulonimbus.

TAF: YBMA 250348Z 2506/2518 13008KT CAVOK

Observacions i pronòstics meteorològics de més de 4000 aeroports (METAR i TAF).

Les estacions disponibles són els punts grocs i vermells al mapa.

Posi el ratolí al punt desitjat per veure el nom de l'estació.

Feu clic per veure les observacions i els pronòstics meteorològics.

Per canviar el mapa: feu clic els botons verds amb una creu de color negre per apropar; al botó verd amb un guió per allunyar la imatge; o en les fletxes verdes per a mapes adjacents.


METAR-TAF: